Time;durP1;ratioP1;P1;durP2;ratioP2;P2;SDS_P1;SDS_P2;PMS_P1;PMS_P2;Temp;Humidity;BMP_temperature;BMP_pressure;BME280_temperature;BME280_humidity;BME280_pressure;Samples;Min_cycle;Max_cycle;Signal;HPM_P1;HPM_P2
2022/02/26 00:01:47;;;;;;;17.17;8.65;;;;;;;;;;5055657;28;20465;-74
2022/02/26 00:04:13;;;;;;;19.00;8.15;;;;;;;;;;5055434;28;20410;-73
2022/02/26 00:06:39;;;;;;;20.98;8.25;;;;;;;;;;5037587;28;20036;-73
2022/02/26 00:09:06;;;;;;;17.20;8.80;;;;;;;;;;5055771;28;20067;-73
2022/02/26 00:11:34;;;;;;;16.05;7.75;;;;;;;;;;5055445;28;20103;-72
2022/02/26 00:14:01;;;;;;;19.48;10.32;;;;;;;;;;5055656;28;20454;-73
2022/02/26 00:16:27;;;;;;;23.60;13.40;;;;;;;;;;5055368;28;20471;-72
2022/02/26 00:18:53;;;;;;;26.77;12.23;;;;;;;;;;5055307;28;20071;-72
2022/02/26 00:21:19;;;;;;;16.20;9.02;;;;;;;;;;5055225;28;20025;-73
2022/02/26 00:23:45;;;;;;;21.88;9.15;;;;;;;;;;5055180;28;20021;-73
2022/02/26 00:26:12;;;;;;;18.17;8.38;;;;;;;;;;5055087;28;20029;-73
2022/02/26 00:28:38;;;;;;;17.95;8.00;;;;;;;;;;5055109;28;20531;-73
2022/02/26 00:31:04;;;;;;;20.10;7.53;;;;;;;;;;5054686;28;20367;-73
2022/02/26 00:33:30;;;;;;;17.27;8.27;;;;;;;;;;5054825;28;20380;-73
2022/02/26 00:35:59;;;;;;;17.85;8.40;;;;;;;;;;5054977;28;20031;-73
2022/02/26 00:38:26;;;;;;;17.42;9.02;;;;;;;;;;5055511;28;20092;-74
2022/02/26 00:40:52;;;;;;;22.10;10.00;;;;;;;;;;5054946;28;20033;-73
2022/02/26 00:43:18;;;;;;;19.67;9.27;;;;;;;;;;5055122;28;20025;-73
2022/02/26 00:45:44;;;;;;;23.67;11.18;;;;;;;;;;5055053;28;20031;-73
2022/02/26 00:48:11;;;;;;;17.77;8.25;;;;;;;;;;5054775;28;20092;-73
2022/02/26 00:50:37;;;;;;;19.02;8.13;;;;;;;;;;5054787;28;20025;-73
2022/02/26 00:53:03;;;;;;;14.95;7.40;;;;;;;;;;5054680;28;20032;-73
2022/02/26 00:55:29;;;;;;;17.58;7.93;;;;;;;;;;5054569;28;20017;-73
2022/02/26 00:57:55;;;;;;;18.05;9.43;;;;;;;;;;5054611;28;20111;-73
2022/02/26 01:00:21;;;;;;;16.92;8.60;;;;;;;;;;5054741;28;20362;-73
2022/02/26 01:02:48;;;;;;;19.98;10.07;;;;;;;;;;5054734;28;20060;-73
2022/02/26 01:05:14;;;;;;;19.73;9.10;;;;;;;;;;5054272;28;20459;-73
2022/02/26 01:07:40;;;;;;;18.35;10.23;;;;;;;;;;5054311;28;20035;-73
2022/02/26 01:10:06;;;;;;;24.35;10.73;;;;;;;;;;5054372;28;20056;-73
2022/02/26 01:12:33;;;;;;;30.77;12.07;;;;;;;;;;5054289;28;20021;-73
2022/02/26 01:14:59;;;;;;;23.98;8.77;;;;;;;;;;5054805;28;20048;-73
2022/02/26 01:17:25;;;;;;;24.20;9.88;;;;;;;;;;5054235;28;20123;-73
2022/02/26 01:19:51;;;;;;;19.20;8.38;;;;;;;;;;5054409;28;20095;-73
2022/02/26 01:22:17;;;;;;;19.65;8.77;;;;;;;;;;5054437;28;20037;-73
2022/02/26 01:24:43;;;;;;;17.70;10.65;;;;;;;;;;5036149;28;20501;-72
2022/02/26 01:27:09;;;;;;;15.63;7.22;;;;;;;;;;5053948;28;20421;-73
2022/02/26 01:29:35;;;;;;;15.25;8.70;;;;;;;;;;5053953;28;20078;-73
2022/02/26 01:32:02;;;;;;;17.90;8.80;;;;;;;;;;5053914;28;20060;-73
2022/02/26 01:34:28;;;;;;;15.00;8.80;;;;;;;;;;5053853;28;20478;-73
2022/02/26 01:36:54;;;;;;;14.38;6.43;;;;;;;;;;5035914;28;20036;-72
2022/02/26 01:39:24;;;;;;;16.08;7.28;;;;;;;;;;5053835;28;20051;-72
2022/02/26 01:41:51;;;;;;;16.45;7.93;;;;;;;;;;5054341;28;20017;-73
2022/02/26 01:44:17;;;;;;;18.55;8.93;;;;;;;;;;5052900;28;20025;-73
2022/02/26 01:46:43;;;;;;;18.02;9.45;;;;;;;;;;5053556;28;20474;-72
2022/02/26 01:49:09;;;;;;;22.45;10.52;;;;;;;;;;5053622;28;20493;-73
2022/02/26 01:51:35;;;;;;;22.42;10.23;;;;;;;;;;5053565;28;20032;-73
2022/02/26 01:54:01;;;;;;;17.77;9.32;;;;;;;;;;5053783;28;20473;-73
2022/02/26 01:56:27;;;;;;;18.05;7.45;;;;;;;;;;5035597;28;20532;-73
2022/02/26 01:58:53;;;;;;;14.07;6.30;;;;;;;;;;5035547;28;20474;-72
2022/02/26 02:01:19;;;;;;;16.58;6.72;;;;;;;;;;5053435;28;20025;-73
2022/02/26 02:03:46;;;;;;;13.10;7.13;;;;;;;;;;5053282;28;20025;-73
2022/02/26 02:06:13;;;;;;;16.15;8.40;;;;;;;;;;5053593;28;20478;-73
2022/02/26 02:08:41;;;;;;;18.90;9.85;;;;;;;;;;5035467;28;20025;-73
2022/02/26 02:11:07;;;;;;;18.33;9.50;;;;;;;;;;5053368;28;20021;-74
2022/02/26 02:13:34;;;;;;;23.10;11.98;;;;;;;;;;5053511;28;20025;-73
2022/02/26 02:16:00;;;;;;;33.00;16.67;;;;;;;;;;5053255;28;20028;-73
2022/02/26 02:18:26;;;;;;;36.47;16.35;;;;;;;;;;5053504;28;20024;-73
2022/02/26 02:20:52;;;;;;;27.83;14.57;;;;;;;;;;5053180;28;20031;-74
2022/02/26 02:23:18;;;;;;;33.08;17.55;;;;;;;;;;5035290;28;20382;-73
2022/02/26 02:25:45;;;;;;;35.72;16.58;;;;;;;;;;5053057;28;20078;-73
2022/02/26 02:28:11;;;;;;;32.35;17.25;;;;;;;;;;5053124;28;20478;-73
2022/02/26 02:30:38;;;;;;;20.55;11.93;;;;;;;;;;5053351;28;20029;-73
2022/02/26 02:33:05;;;;;;;22.30;10.90;;;;;;;;;;5053049;28;20029;-74
2022/02/26 02:35:36;;;;;;;20.63;10.05;;;;;;;;;;5053076;28;20014;-72
2022/02/26 02:38:04;;;;;;;20.50;8.77;;;;;;;;;;5053319;28;20028;-73
2022/02/26 02:40:30;;;;;;;19.20;10.85;;;;;;;;;;5035176;28;20113;-73
2022/02/26 02:42:57;;;;;;;22.63;11.45;;;;;;;;;;5052983;28;20061;-73
2022/02/26 02:45:23;;;;;;;24.88;12.23;;;;;;;;;;5052979;28;20150;-73
2022/02/26 02:47:49;;;;;;;28.55;13.65;;;;;;;;;;5053153;28;20036;-73
2022/02/26 02:50:16;;;;;;;21.85;11.15;;;;;;;;;;5052897;28;20051;-73
2022/02/26 02:52:43;;;;;;;14.73;7.28;;;;;;;;;;5053163;28;20381;-73
2022/02/26 02:55:09;;;;;;;14.10;6.55;;;;;;;;;;5036522;28;20021;-73
2022/02/26 02:57:35;;;;;;;18.30;9.75;;;;;;;;;;5038914;28;20489;-73
2022/02/26 03:00:02;;;;;;;18.42;7.82;;;;;;;;;;5056799;28;20052;-73
2022/02/26 03:02:28;;;;;;;17.15;7.28;;;;;;;;;;5056763;28;20032;-73
2022/02/26 03:04:54;;;;;;;13.65;7.28;;;;;;;;;;5056659;28;20563;-73
2022/02/26 03:07:20;;;;;;;21.77;10.75;;;;;;;;;;5056636;28;20025;-73
2022/02/26 03:09:46;;;;;;;18.05;11.18;;;;;;;;;;5038764;28;20020;-72
2022/02/26 03:12:12;;;;;;;20.67;11.43;;;;;;;;;;5056565;28;20029;-73
2022/02/26 03:14:38;;;;;;;17.10;9.30;;;;;;;;;;5056484;28;20104;-74
2022/02/26 03:17:05;;;;;;;16.20;7.75;;;;;;;;;;5056502;28;20057;-73
2022/02/26 03:19:31;;;;;;;13.77;7.88;;;;;;;;;;5056713;28;20032;-73
2022/02/26 03:21:57;;;;;;;16.27;7.47;;;;;;;;;;5056413;28;20104;-72
2022/02/26 03:24:23;;;;;;;17.65;7.88;;;;;;;;;;5056335;28;20487;-73
2022/02/26 03:26:55;;;;;;;14.95;7.05;;;;;;;;;;5056519;28;20489;-73
2022/02/26 03:29:22;;;;;;;12.68;7.22;;;;;;;;;;5056308;28;20023;-74
2022/02/26 03:31:48;;;;;;;14.73;6.38;;;;;;;;;;5056197;28;20040;-73
2022/02/26 03:34:14;;;;;;;16.80;7.38;;;;;;;;;;5056413;28;20074;-73
2022/02/26 03:36:40;;;;;;;14.07;8.50;;;;;;;;;;5038289;28;20033;-73
2022/02/26 03:39:06;;;;;;;16.00;7.47;;;;;;;;;;5056120;28;20389;-73
2022/02/26 03:41:33;;;;;;;16.63;7.45;;;;;;;;;;5056323;28;20024;-73
2022/02/26 03:43:59;;;;;;;20.38;8.63;;;;;;;;;;5056002;28;20039;-73
2022/02/26 03:46:25;;;;;;;17.33;8.05;;;;;;;;;;5055899;28;20108;-73
2022/02/26 03:48:51;;;;;;;17.73;8.07;;;;;;;;;;5055905;28;20032;-73
2022/02/26 03:51:17;;;;;;;18.27;8.50;;;;;;;;;;5055828;28;20028;-73
2022/02/26 03:53:43;;;;;;;21.15;8.52;;;;;;;;;;5055802;28;20028;-73
2022/02/26 03:56:09;;;;;;;18.95;9.32;;;;;;;;;;5055677;28;20028;-72
2022/02/26 03:58:35;;;;;;;23.25;10.65;;;;;;;;;;5055993;28;20032;-73
2022/02/26 04:01:01;;;;;;;19.33;9.13;;;;;;;;;;5055641;28;20501;-73
2022/02/26 04:03:27;;;;;;;18.65;10.20;;;;;;;;;;5055604;28;20032;-73
2022/02/26 04:05:53;;;;;;;18.52;9.73;;;;;;;;;;5071435;28;20095;-73
2022/02/26 04:08:19;;;;;;;19.88;9.65;;;;;;;;;;5075212;28;20401;-72
2022/02/26 04:10:45;;;;;;;19.92;10.55;;;;;;;;;;5075555;28;20021;-72
2022/02/26 04:13:11;;;;;;;22.27;11.13;;;;;;;;;;5075418;28;20495;-73
2022/02/26 04:15:37;;;;;;;21.83;11.57;;;;;;;;;;5075434;28;20025;-73
2022/02/26 04:18:03;;;;;;;24.75;10.95;;;;;;;;;;5075647;28;20031;-73
2022/02/26 04:20:29;;;;;;;18.40;9.68;;;;;;;;;;5075347;28;20029;-73
2022/02/26 04:22:55;;;;;;;19.20;10.43;;;;;;;;;;5075311;28;20021;-73
2022/02/26 04:25:21;;;;;;;20.38;9.52;;;;;;;;;;5075242;28;20026;-73
2022/02/26 04:27:47;;;;;;;21.08;10.65;;;;;;;;;;5075122;28;20028;-73
2022/02/26 04:30:15;;;;;;;16.58;8.25;;;;;;;;;;5075141;28;20028;-73
2022/02/26 04:32:41;;;;;;;17.92;7.80;;;;;;;;;;5075411;28;20027;-72
2022/02/26 04:35:07;;;;;;;14.68;7.65;;;;;;;;;;5075117;28;20021;-74
2022/02/26 04:37:33;;;;;;;18.05;9.23;;;;;;;;;;5075077;28;20016;-73
2022/02/26 04:39:59;;;;;;;19.40;9.57;;;;;;;;;;5075284;28;20470;-73
2022/02/26 04:42:26;;;;;;;20.80;8.90;;;;;;;;;;5074963;28;20098;-74
2022/02/26 04:44:52;;;;;;;20.05;9.50;;;;;;;;;;5074912;28;20503;-74
2022/02/26 04:47:18;;;;;;;20.60;9.70;;;;;;;;;;5074732;28;20032;-72
2022/02/26 04:49:44;;;;;;;20.95;10.35;;;;;;;;;;5074745;28;20078;-73
2022/02/26 04:52:10;;;;;;;18.48;9.95;;;;;;;;;;5074719;28;20542;-74
2022/02/26 04:54:36;;;;;;;17.25;8.90;;;;;;;;;;5074588;28;20047;-74
2022/02/26 04:57:03;;;;;;;17.40;9.75;;;;;;;;;;5074862;28;20024;-73
2022/02/26 04:59:29;;;;;;;21.80;10.10;;;;;;;;;;5075044;28;20056;-73
2022/02/26 05:01:55;;;;;;;20.98;9.35;;;;;;;;;;5075058;28;20021;-73
2022/02/26 05:04:21;;;;;;;26.83;10.38;;;;;;;;;;5067963;28;20060;-73
2022/02/26 05:06:47;;;;;;;22.27;10.63;;;;;;;;;;5054643;28;20025;-73
2022/02/26 05:09:13;;;;;;;21.60;9.98;;;;;;;;;;5054395;28;20056;-73
2022/02/26 05:11:39;;;;;;;22.25;10.07;;;;;;;;;;5054302;28;20032;-73
2022/02/26 05:14:05;;;;;;;20.42;9.07;;;;;;;;;;5054296;28;20556;-74
2022/02/26 05:16:31;;;;;;;18.30;9.45;;;;;;;;;;5054219;28;20366;-73
2022/02/26 05:18:57;;;;;;;17.33;9.48;;;;;;;;;;5054343;28;20028;-73
2022/02/26 05:21:23;;;;;;;26.90;10.48;;;;;;;;;;5054146;28;20075;-73
2022/02/26 05:23:49;;;;;;;25.63;10.10;;;;;;;;;;5036174;28;20424;-73
2022/02/26 05:26:15;;;;;;;15.25;9.32;;;;;;;;;;5053980;28;20027;-73
2022/02/26 05:28:41;;;;;;;20.13;9.20;;;;;;;;;;5054047;28;20059;-73
2022/02/26 05:31:08;;;;;;;22.90;9.18;;;;;;;;;;5054030;28;20032;-73
2022/02/26 05:33:35;;;;;;;19.40;9.45;;;;;;;;;;5054197;28;20032;-73
2022/02/26 05:36:01;;;;;;;19.13;9.43;;;;;;;;;;5036035;28;20029;-73
2022/02/26 05:38:28;;;;;;;18.92;10.65;;;;;;;;;;5053815;28;20056;-72
2022/02/26 05:40:54;;;;;;;23.60;10.43;;;;;;;;;;5053820;28;20473;-73
2022/02/26 05:43:20;;;;;;;17.10;10.73;;;;;;;;;;5053756;28;20055;-73
2022/02/26 05:45:46;;;;;;;23.25;12.23;;;;;;;;;;5053882;28;20474;-73
2022/02/26 05:48:12;;;;;;;21.08;10.23;;;;;;;;;;5053719;28;20104;-73
2022/02/26 05:50:38;;;;;;;19.02;10.52;;;;;;;;;;5053605;28;20465;-73
2022/02/26 05:53:04;;;;;;;21.95;10.35;;;;;;;;;;5053585;28;20052;-74
2022/02/26 05:55:31;;;;;;;22.63;9.77;;;;;;;;;;5053575;28;20092;-72
2022/02/26 05:57:57;;;;;;;19.98;11.13;;;;;;;;;;5053536;28;20024;-71
2022/02/26 06:00:24;;;;;;;25.10;10.73;;;;;;;;;;5053438;28;20028;-73
2022/02/26 06:02:50;;;;;;;25.30;11.25;;;;;;;;;;5053711;28;20035;-73
2022/02/26 06:05:16;;;;;;;23.98;11.10;;;;;;;;;;5053251;28;20048;-73
2022/02/26 06:07:42;;;;;;;34.35;11.45;;;;;;;;;;5053818;28;20378;-73
2022/02/26 06:10:08;;;;;;;23.50;10.88;;;;;;;;;;5053344;28;20052;-73
2022/02/26 06:12:34;;;;;;;24.40;10.25;;;;;;;;;;5053281;28;20566;-74
2022/02/26 06:15:01;;;;;;;26.55;11.32;;;;;;;;;;5053214;28;20028;-74
2022/02/26 06:17:27;;;;;;;23.10;11.27;;;;;;;;;;5053260;28;20025;-73
2022/02/26 06:19:53;;;;;;;29.77;11.82;;;;;;;;;;5053729;28;20103;-73
2022/02/26 06:22:19;;;;;;;25.55;12.18;;;;;;;;;;5035296;28;20056;-73
2022/02/26 06:24:45;;;;;;;31.65;12.75;;;;;;;;;;5053172;28;20074;-72
2022/02/26 06:27:11;;;;;;;25.30;11.35;;;;;;;;;;5053352;28;20028;-73
2022/02/26 06:29:37;;;;;;;25.90;11.50;;;;;;;;;;5052597;28;20362;-74
2022/02/26 06:32:03;;;;;;;23.42;11.38;;;;;;;;;;5053414;28;20104;-73
2022/02/26 06:34:29;;;;;;;22.33;10.63;;;;;;;;;;5053603;28;20021;-73
2022/02/26 06:36:55;;;;;;;22.02;10.20;;;;;;;;;;5053375;28;20033;-72
2022/02/26 06:39:22;;;;;;;22.48;10.60;;;;;;;;;;5053020;28;20111;-73
2022/02/26 06:41:48;;;;;;;23.40;11.07;;;;;;;;;;5053036;28;20032;-73
2022/02/26 06:44:14;;;;;;;38.95;10.25;;;;;;;;;;5052978;28;20162;-73
2022/02/26 06:46:41;;;;;;;22.40;10.43;;;;;;;;;;5052908;28;20104;-74
2022/02/26 06:49:08;;;;;;;19.08;10.63;;;;;;;;;;5052974;28;20028;-72
2022/02/26 06:51:34;;;;;;;25.35;11.25;;;;;;;;;;5053436;28;20104;-73
2022/02/26 06:54:00;;;;;;;22.83;10.50;;;;;;;;;;5034909;28;20028;-73
2022/02/26 06:56:27;;;;;;;20.60;10.43;;;;;;;;;;5052881;28;20025;-73
2022/02/26 06:58:53;;;;;;;24.38;11.63;;;;;;;;;;5052889;28;20029;-73
2022/02/26 07:01:20;;;;;;;21.15;10.23;;;;;;;;;;5052783;28;20112;-73
2022/02/26 07:03:46;;;;;;;25.40;10.73;;;;;;;;;;5052603;28;20104;-74
2022/02/26 07:06:12;;;;;;;22.63;10.75;;;;;;;;;;5053021;28;20064;-73
2022/02/26 07:08:38;;;;;;;22.63;10.93;;;;;;;;;;5053088;28;20055;-73
2022/02/26 07:11:04;;;;;;;22.20;11.38;;;;;;;;;;5052763;28;20025;-74
2022/02/26 07:13:31;;;;;;;22.83;9.48;;;;;;;;;;5052728;28;20021;-73
2022/02/26 07:15:58;;;;;;;20.88;8.88;;;;;;;;;;5034816;28;20081;-74
2022/02/26 07:18:24;;;;;;;21.23;8.93;;;;;;;;;;5052650;28;20017;-73
2022/02/26 07:20:50;;;;;;;23.35;10.63;;;;;;;;;;5052602;28;20477;-74
2022/02/26 07:23:16;;;;;;;23.13;9.43;;;;;;;;;;5052886;28;20017;-73
2022/02/26 07:25:44;;;;;;;22.95;10.60;;;;;;;;;;5052864;28;20029;-73
2022/02/26 07:28:10;;;;;;;23.45;10.88;;;;;;;;;;5052505;28;20017;-75
2022/02/26 07:30:37;;;;;;;25.75;10.52;;;;;;;;;;5052823;28;20026;-73
2022/02/26 07:33:03;;;;;;;29.00;10.45;;;;;;;;;;5052550;28;20045;-73
2022/02/26 07:35:29;;;;;;;22.15;9.80;;;;;;;;;;5052844;28;20025;-73
2022/02/26 07:37:55;;;;;;;21.42;9.80;;;;;;;;;;5052501;28;20500;-73
2022/02/26 07:40:21;;;;;;;21.95;9.45;;;;;;;;;;5034556;28;20031;-74
2022/02/26 07:42:48;;;;;;;24.20;10.15;;;;;;;;;;5054839;28;20099;-74
2022/02/26 07:45:14;;;;;;;21.70;10.25;;;;;;;;;;5056032;28;20508;-73
2022/02/26 07:47:41;;;;;;;20.42;8.77;;;;;;;;;;5055875;28;20053;-73
2022/02/26 07:50:07;;;;;;;25.00;10.25;;;;;;;;;;5056372;28;20028;-73
2022/02/26 07:52:33;;;;;;;30.23;10.10;;;;;;;;;;5056402;28;20024;-74
2022/02/26 07:55:01;;;;;;;24.58;8.90;;;;;;;;;;5055763;28;20021;-73
2022/02/26 07:57:27;;;;;;;20.60;9.57;;;;;;;;;;5055768;28;20036;-73
2022/02/26 07:59:53;;;;;;;17.92;7.68;;;;;;;;;;5055766;28;20474;-73
2022/02/26 08:02:19;;;;;;;24.30;9.70;;;;;;;;;;5055926;28;20385;-73
2022/02/26 08:04:45;;;;;;;32.90;12.75;;;;;;;;;;5055587;28;20055;-73
2022/02/26 08:07:13;;;;;;;69.97;30.92;;;;;;;;;;5055787;28;20035;-74
2022/02/26 08:09:39;;;;;;;31.40;11.68;;;;;;;;;;5055888;28;20044;-73
2022/02/26 08:12:05;;;;;;;26.88;11.95;;;;;;;;;;5056036;28;20017;-73
2022/02/26 08:14:32;;;;;;;19.42;7.55;;;;;;;;;;5055480;28;20024;-74
2022/02/26 08:16:58;;;;;;;21.10;7.18;;;;;;;;;;5055449;28;20028;-73
2022/02/26 08:19:24;;;;;;;17.20;6.63;;;;;;;;;;5055624;28;20116;-73
2022/02/26 08:21:51;;;;;;;22.05;6.43;;;;;;;;;;5055632;28;20025;-74
2022/02/26 08:24:17;;;;;;;16.45;7.88;;;;;;;;;;5055320;28;20025;-73
2022/02/26 08:26:45;;;;;;;21.52;6.57;;;;;;;;;;5055183;28;20032;-74
2022/02/26 08:29:11;;;;;;;13.85;6.55;;;;;;;;;;5037244;28;20397;-74
2022/02/26 08:31:37;;;;;;;24.52;12.40;;;;;;;;;;5055178;28;20386;-74
2022/02/26 08:34:03;;;;;;;22.13;7.40;;;;;;;;;;5055096;28;20031;-72
2022/02/26 08:36:29;;;;;;;34.60;17.70;;;;;;;;;;5055057;28;20104;-73
2022/02/26 08:38:55;;;;;;;23.55;7.85;;;;;;;;;;5055270;28;20029;-74
2022/02/26 08:41:22;;;;;;;18.73;7.18;;;;;;;;;;5055300;28;20078;-73
2022/02/26 08:43:48;;;;;;;17.88;7.40;;;;;;;;;;5054922;28;20593;-73
2022/02/26 08:46:14;;;;;;;17.35;6.25;;;;;;;;;;5054757;28;20025;-74
2022/02/26 08:48:40;;;;;;;16.80;6.30;;;;;;;;;;5054830;28;20021;-74
2022/02/26 08:51:06;;;;;;;16.35;5.53;;;;;;;;;;5055008;28;20021;-75
2022/02/26 08:53:32;;;;;;;13.57;6.07;;;;;;;;;;5054238;28;20029;-72
2022/02/26 08:55:58;;;;;;;11.93;5.80;;;;;;;;;;5054619;28;20477;-72
2022/02/26 08:58:24;;;;;;;16.77;5.82;;;;;;;;;;5054590;28;20081;-73
2022/02/26 09:00:51;;;;;;;16.13;6.00;;;;;;;;;;5055119;28;20377;-72
2022/02/26 09:03:17;;;;;;;16.90;5.50;;;;;;;;;;5054576;28;20032;-74
2022/02/26 09:05:43;;;;;;;15.30;5.72;;;;;;;;;;5054168;28;20517;-75
2022/02/26 09:08:09;;;;;;;14.40;5.82;;;;;;;;;;5054650;28;20063;-75
2022/02/26 09:10:36;;;;;;;16.55;5.70;;;;;;;;;;5054619;28;20086;-74
2022/02/26 09:13:02;;;;;;;11.35;5.32;;;;;;;;;;5054328;28;20028;-73
2022/02/26 09:15:28;;;;;;;14.13;5.57;;;;;;;;;;5054202;28;20513;-73
2022/02/26 09:17:55;;;;;;;17.58;6.10;;;;;;;;;;5054302;28;20420;-71
2022/02/26 09:20:21;;;;;;;11.98;5.47;;;;;;;;;;5054385;28;20539;-72
2022/02/26 09:22:47;;;;;;;14.20;5.75;;;;;;;;;;5053978;28;20074;-73
2022/02/26 09:25:14;;;;;;;15.95;5.63;;;;;;;;;;5053194;28;20097;-73
2022/02/26 09:27:40;;;;;;;19.35;7.20;;;;;;;;;;5036067;28;20029;-73
2022/02/26 09:30:07;;;;;;;14.48;6.30;;;;;;;;;;5053953;28;20382;-72
2022/02/26 09:32:33;;;;;;;15.77;6.20;;;;;;;;;;5053239;28;20029;-72
2022/02/26 09:35:00;;;;;;;13.57;5.80;;;;;;;;;;5052736;28;20398;-72
2022/02/26 09:37:26;;;;;;;13.35;5.50;;;;;;;;;;5034526;28;20052;-73
2022/02/26 09:39:54;;;;;;;13.00;6.57;;;;;;;;;;5052519;28;20029;-72
2022/02/26 09:42:23;;;;;;;20.88;13.05;;;;;;;;;;5052897;28;20032;-72
2022/02/26 09:44:50;;;;;;;14.90;8.25;;;;;;;;;;5053672;28;20025;-78
2022/02/26 09:47:16;;;;;;;16.73;6.43;;;;;;;;;;5054157;28;20083;-77
2022/02/26 09:49:42;;;;;;;18.25;8.48;;;;;;;;;;5053841;28;20377;-77
2022/02/26 09:52:08;;;;;;;13.65;6.13;;;;;;;;;;5035649;28;20033;-74
2022/02/26 09:54:35;;;;;;;15.30;7.18;;;;;;;;;;5053509;28;20045;-79
2022/02/26 09:57:01;;;;;;;13.23;6.43;;;;;;;;;;5053402;28;20028;-75
2022/02/26 09:59:27;;;;;;;14.73;6.32;;;;;;;;;;5053924;28;20481;-79
2022/02/26 10:02:07;;;;;;;11.93;6.20;;;;;;;;;;5053453;28;20032;-78
2022/02/26 10:04:35;;;;;;;15.55;6.32;;;;;;;;;;5047121;28;20071;-77
2022/02/26 10:07:12;;;;;;;16.15;6.97;;;;;;;;;;5073634;28;20029;-74
2022/02/26 10:09:42;;;;;;;12.65;6.10;;;;;;;;;;5073597;28;20024;-82
2022/02/26 10:12:17;;;;;;;14.55;6.65;;;;;;;;;;5073348;28;20404;-73
2022/02/26 10:14:43;;;;;;;15.10;5.97;;;;;;;;;;5073558;28;20373;-74
2022/02/26 10:17:09;;;;;;;12.35;5.75;;;;;;;;;;5073139;28;20028;-76
2022/02/26 10:19:36;;;;;;;12.40;5.18;;;;;;;;;;5073098;28;20027;-72
2022/02/26 10:22:02;;;;;;;16.63;5.97;;;;;;;;;;5073786;28;20085;-72
2022/02/26 10:24:29;;;;;;;13.07;5.50;;;;;;;;;;5073235;28;20033;-72
2022/02/26 10:26:57;;;;;;;14.55;5.80;;;;;;;;;;5072989;28;20040;-74
2022/02/26 10:29:24;;;;;;;12.45;5.88;;;;;;;;;;5073280;28;20048;-74
2022/02/26 10:31:57;;;;;;;14.23;5.88;;;;;;;;;;5073076;28;20047;-73
2022/02/26 10:34:24;;;;;;;13.43;6.13;;;;;;;;;;5073357;28;20016;-74
2022/02/26 10:37:17;;;;;;;9.93;5.00;;;;;;;;;;5073333;28;20032;-73
2022/02/26 10:39:51;;;;;;;15.05;5.32;;;;;;;;;;5070038;28;20055;-74
2022/02/26 10:42:17;;;;;;;9.52;4.68;;;;;;;;;;5072692;28;20025;-74
2022/02/26 10:44:43;;;;;;;10.15;4.68;;;;;;;;;;5073244;28;20047;-74
2022/02/26 10:47:12;;;;;;;10.98;4.15;;;;;;;;;;5073186;28;20060;-75
2022/02/26 10:49:45;;;;;;;9.60;4.07;;;;;;;;;;5073198;28;20063;-72
2022/02/26 10:52:12;;;;;;;12.38;4.60;;;;;;;;;;5073206;28;20024;-76
2022/02/26 10:54:39;;;;;;;14.73;4.03;;;;;;;;;;5071576;28;20062;-81
2022/02/26 10:57:06;;;;;;;12.55;3.92;;;;;;;;;;5071566;28;20029;-75
2022/02/26 10:59:34;;;;;;;10.57;3.75;;;;;;;;;;5073312;28;20151;-75
2022/02/26 11:02:05;;;;;;;13.00;3.97;;;;;;;;;;5072783;28;20040;-74
2022/02/26 11:04:31;;;;;;;9.40;3.60;;;;;;;;;;5065229;28;20060;-74
2022/02/26 11:06:57;;;;;;;9.38;3.42;;;;;;;;;;5052861;28;20064;-72
2022/02/26 11:09:25;;;;;;;11.88;3.65;;;;;;;;;;5053097;28;20025;-82
2022/02/26 11:11:52;;;;;;;13.82;3.65;;;;;;;;;;5053205;28;20536;-75
2022/02/26 11:14:21;;;;;;;11.13;4.05;;;;;;;;;;5052579;28;20036;-73
2022/02/26 11:16:52;;;;;;;10.55;4.60;;;;;;;;;;5055782;28;20032;-73
2022/02/26 11:19:23;;;;;;;11.25;4.18;;;;;;;;;;5056818;28;20029;-72
2022/02/26 11:21:50;;;;;;;11.75;4.03;;;;;;;;;;5056778;28;20043;-74
2022/02/26 11:24:16;;;;;;;13.65;4.32;;;;;;;;;;5056577;28;20083;-74
2022/02/26 11:26:43;;;;;;;7.85;3.05;;;;;;;;;;5056606;28;20040;-74
2022/02/26 11:29:10;;;;;;;9.80;3.75;;;;;;;;;;5056973;28;20057;-73
2022/02/26 11:31:57;;;;;;;9.85;3.47;;;;;;;;;;5056167;28;20033;-73
2022/02/26 11:34:27;;;;;;;9.25;3.47;;;;;;;;;;5056754;28;20036;-74
2022/02/26 11:36:53;;;;;;;9.82;3.25;;;;;;;;;;5056882;28;20028;-72
2022/02/26 11:39:22;;;;;;;10.93;3.53;;;;;;;;;;5056772;28;20074;-73
2022/02/26 11:41:48;;;;;;;8.23;3.17;;;;;;;;;;5056052;28;20028;-73
2022/02/26 11:44:34;;;;;;;14.35;3.72;;;;;;;;;;5056028;28;20476;-73
2022/02/26 11:47:33;;;;;;;8.38;2.90;;;;;;;;;;5055924;28;20029;-72
2022/02/26 11:50:00;;;;;;;11.55;3.28;;;;;;;;;;5033219;28;20041;-73
2022/02/26 11:53:01;;;;;;;10.38;3.30;;;;;;;;;;5056123;28;20032;-74
2022/02/26 11:55:30;;;;;;;6.80;2.60;;;;;;;;;;5014004;28;20030;-73
2022/02/26 11:57:58;;;;;;;9.38;3.38;;;;;;;;;;5046372;28;20543;-71
2022/02/26 12:00:24;;;;;;;16.13;3.80;;;;;;;;;;5053521;28;20474;-72
2022/02/26 12:03:09;;;;;;;7.40;2.70;;;;;;;;;;5055718;28;20100;-72
2022/02/26 12:05:35;;;;;;;15.07;3.15;;;;;;;;;;5055455;28;20098;-72
2022/02/26 12:08:08;;;;;;;9.25;2.90;;;;;;;;;;5055828;28;20108;-73
2022/02/26 12:10:34;;;;;;;11.75;2.55;;;;;;;;;;5055911;28;20056;-72
2022/02/26 12:13:00;;;;;;;9.23;2.70;;;;;;;;;;5055797;28;20021;-72
2022/02/26 12:15:32;;;;;;;9.00;2.72;;;;;;;;;;5055396;28;20492;-71
2022/02/26 12:17:58;;;;;;;14.50;3.13;;;;;;;;;;5037567;28;20033;-71
2022/02/26 12:20:30;;;;;;;10.77;2.92;;;;;;;;;;5055357;28;20025;-72
2022/02/26 12:23:06;;;;;;;6.63;2.15;;;;;;;;;;5055926;28;20036;-71
2022/02/26 12:25:37;;;;;;;8.43;2.78;;;;;;;;;;5055887;28;20033;-72
2022/02/26 12:28:08;;;;;;;11.00;4.00;;;;;;;;;;5054618;28;20362;-73
2022/02/26 12:30:50;;;;;;;9.95;2.83;;;;;;;;;;5055201;28;20091;-73
2022/02/26 12:33:16;;;;;;;9.20;2.90;;;;;;;;;;5055192;28;20091;-72
2022/02/26 12:35:42;;;;;;;7.00;2.33;;;;;;;;;;5055087;28;20385;-72
2022/02/26 12:38:21;;;;;;;8.63;2.75;;;;;;;;;;5055009;28;20028;-73
2022/02/26 12:40:47;;;;;;;8.75;3.03;;;;;;;;;;5055289;28;20559;-72
2022/02/26 12:43:13;;;;;;;6.22;2.42;;;;;;;;;;5054951;28;20074;-72
2022/02/26 12:45:43;;;;;;;7.38;2.85;;;;;;;;;;5054934;28;20021;-74
2022/02/26 12:48:10;;;;;;;7.22;2.53;;;;;;;;;;5055127;28;20025;-71
2022/02/26 12:50:36;;;;;;;8.50;2.67;;;;;;;;;;5055353;28;20086;-72
2022/02/26 12:53:03;;;;;;;7.35;2.28;;;;;;;;;;5054761;28;20394;-72
2022/02/26 12:55:30;;;;;;;10.98;3.08;;;;;;;;;;5054871;28;20086;-73
2022/02/26 12:57:56;;;;;;;6.70;2.25;;;;;;;;;;5054906;28;20021;-71
2022/02/26 13:00:25;;;;;;;5.50;2.47;;;;;;;;;;5054923;28;20491;-72
2022/02/26 13:02:58;;;;;;;6.32;2.22;;;;;;;;;;5054622;28;20477;-72
2022/02/26 13:05:31;;;;;;;5.85;2.30;;;;;;;;;;5054276;28;20045;-74
2022/02/26 13:08:23;;;;;;;7.00;2.85;;;12.10;99.90;;;;;;5054997;28;20036;-73
2022/02/26 13:10:50;;;;;;;8.93;2.60;;;11.60;91.50;;;;;;5052655;28;20501;-73
2022/02/26 13:13:19;;;;;;;6.63;2.25;;;11.50;91.20;;;;;;5054359;28;20070;-73
2022/02/26 13:15:47;;;;;;;5.55;2.47;;;11.60;91.30;;;;;;5036433;28;20150;-72
2022/02/26 13:18:13;;;;;;;6.10;2.67;;;11.70;90.30;;;;;;5036382;28;20489;-72
2022/02/26 13:20:40;;;;;;;5.95;2.25;;;;;;;;;;5054270;28;20024;-72
2022/02/26 13:23:08;;;;;;;7.28;2.30;;;11.70;87.90;;;;;;5054490;28;20032;-72
2022/02/26 13:25:38;;;;;;;6.93;2.05;;;11.60;87.30;;;;;;5054147;28;20029;-74
2022/02/26 13:28:04;;;;;;;8.45;2.40;;;;;;;;;;5036174;28;20036;-73
2022/02/26 13:30:31;;;;;;;9.70;4.32;;;;;;;;;;5054584;28;20055;-71
2022/02/26 13:32:58;;;;;;;9.02;2.72;;;;;;;;;;5054550;28;20025;-73
2022/02/26 13:35:25;;;;;;;10.20;2.92;;;;;;;;;;5054247;28;20096;-74
2022/02/26 13:37:54;;;;;;;5.82;2.20;;;;;;;;;;5053924;28;20033;-72
2022/02/26 13:40:22;;;;;;;6.45;2.10;;;;;;;;;;5054367;28;20029;-72
2022/02/26 13:42:54;;;;;;;7.30;2.60;;;11.60;83.50;;;;;;5053831;28;20028;-77
2022/02/26 13:45:21;;;;;;;7.95;2.40;;;12.00;82.70;;;;;;5054033;28;20013;-77
2022/02/26 13:47:49;;;;;;;4.88;2.17;;;12.20;81.30;;;;;;5054404;28;20033;-75
2022/02/26 13:50:16;;;;;;;6.30;2.47;;;12.30;80.90;;;;;;5054012;28;20013;-74
2022/02/26 13:52:46;;;;;;;9.23;3.08;;;12.40;78.30;;;;;;5054339;28;20075;-74
2022/02/26 13:55:15;;;;;;;6.95;1.95;;;12.40;77.60;;;;;;5053883;28;20021;-75
2022/02/26 13:57:43;;;;;;;8.35;2.28;;;12.40;77.60;;;;;;5035671;28;20028;-75
2022/02/26 14:00:19;;;;;;;6.78;2.53;;;12.50;77.10;;;;;;5053858;28;20025;-75
2022/02/26 14:03:24;;;;;;;4.78;2.20;;;12.50;75.10;;;;;;5035375;28;20040;-74
2022/02/26 14:05:50;;;;;;;6.80;2.33;;;12.40;75.60;;;;;;5048697;28;20057;-73
2022/02/26 14:08:17;;;;;;;5.38;2.22;;;12.50;77.00;;;;;;5034802;28;20551;-74
2022/02/26 14:10:43;;;;;;;6.50;3.03;;;12.40;76.50;;;;;;5062056;28;20029;-76
2022/02/26 14:13:14;;;;;;;8.02;2.85;;;12.50;76.50;;;;;;5073986;28;20020;-75
2022/02/26 14:15:48;;;;;;;6.30;2.40;;;12.60;75.40;;;;;;5073362;28;20031;-75
2022/02/26 14:18:23;;;;;;;6.82;2.72;;;12.60;74.30;;;;;;5073925;28;20028;-74
2022/02/26 14:20:51;;;;;;;5.70;2.35;;;12.50;73.60;;;;;;5073299;28;20067;-78